This is the latest recevied weather packets stored in our database for station/object 7L2IWN-13. If no packets are shown the sender has not sent any weather packets the latest 10 day(s).
| Time | Temp. | Humidity | Pressure | Rain* | Wind** | Luminosity | Snow |
|---|---|---|---|---|---|---|---|
| 1777602860 | 12.22° C | 99% | 1000.9 hPa | 0.76 mm | - | - | - |
| 1777602140 | 11.67° C | 99% | 1001.7 hPa | 1.02 mm | - | - | - |
| 1777601420 | 11.67° C | 99% | 1002.2 hPa | 1.52 mm | - | - | - |
| 1777600699 | 11.67° C | 99% | 1001.9 hPa | 1.78 mm | - | - | - |
| 1777585582 | 8.89° C | 99% | 1009.9 hPa | 6.86 mm | - | - | - |
| 1777583421 | 8.89° C | 99% | 1010.3 hPa | 2.03 mm | - | - | - |
| 1777582701 | 8.89° C | 99% | 1010.5 hPa | 0.51 mm | - | - | - |
| 1777581262 | 8.89° C | 99% | 1010.8 hPa | 1.27 mm | - | - | - |
| 1777580542 | 8.89° C | 99% | 1010.9 hPa | 3.05 mm | - | - | - |
| 1777579822 | 8.89° C | 99% | 1010.9 hPa | 3.05 mm | - | - | - |
| 1777578383 | 8.89° C | 99% | 1011.4 hPa | 4.57 mm | - | - | - |
| 1777576221 | 8.89° C | 99% | 1012.2 hPa | 5.33 mm | - | - | - |
| 1777574062 | 8.89° C | 99% | 1013.7 hPa | 4.57 mm | - | - | - |
| 1777572622 | 8.89° C | 99% | 1014.3 hPa | 2.29 mm | - | - | - |
| 1777571184 | 8.89° C | 99% | 1014.5 hPa | 2.29 mm | - | - | - |
| 1777570461 | 8.89° C | 99% | 1014.4 hPa | 1.78 mm | - | - | - |
| 1777569021 | 8.89° C | 99% | 1014.2 hPa | 2.03 mm | - | - | - |
| 1777568301 | 8.89° C | 99% | 1014.7 hPa | 1.78 mm | - | - | - |
| 1777566862 | 8.89° C | 99% | 1015.3 hPa | 1.52 mm | - | - | - |
| 1777565422 | 8.89° C | 99% | 1015.7 hPa | 1.02 mm | - | - | - |
| 1777563981 | 8.89° C | 99% | 1016.4 hPa | 0 mm | - | - | - |
| 1777563259 | 8.89° C | 99% | 1016.5 hPa | 0 mm | - | - | - |
| 1777561101 | 8.89° C | 99% | 1017.4 hPa | 0.76 mm | - | - | - |
| 1777560381 | 8.89° C | 99% | 1017.4 hPa | 0.51 mm | - | - | - |
| 1777559662 | 8.89° C | 99% | 1017.5 hPa | 0.51 mm | - | - | - |
* Rain latest hour (hover to see other rain measurements)
** Current wind speed in m/s (hover to see current wind gust speed)